Svitzer Stanlow — MLNF7 — position and weather

sailwx.info

Track history (hours):
 
Tides and Currents Weather Stations Pressure Air Temp Water Temp Dewpoint Dewpoint Depression Visibility Wind Speed Wind Dir Waves Ship Positions

Svitzer Stanlow

Last reported at 2015-May-03 08:33 UTC. Time now 2015-May-03 08:48 UTC.
Position N 53°31' W 003°18'.

Length 39 m.

Type: Tug. MMSI: 235010620.

Date/timePositionNaut miles runAvg speedWind from/ knotsBaromVisibWave heightAir tempDewpointWater temp
2015-May-03 08:33N 53°31' W 003°18'7 7.5
2015-May-03 07:33N 53°30' W 003°06'8 7.2
2015-May-03 06:29N 53°23' W 003°00'0 0.0
2015-May-03 05:32N 53°23' W 003°00'0 0.0
2015-May-03 04:29N 53°23' W 003°00'0 0.0
2015-May-03 03:32N 53°23' W 003°00'0 0.0
2015-May-03 02:32N 53°23' W 003°00'0 0.0
2015-May-03 01:32N 53°23' W 003°00'0 0.0
2015-May-03 00:32N 53°23' W 003°00'0 0.0
2015-May-02 23:32N 53°23' W 003°00'0 0.0
2015-May-02 22:32N 53°23' W 003°00'0 0.0
2015-May-02 21:32N 53°23' W 003°00'0 0.0
2015-May-02 20:32N 53°23' W 003°00'0 0.0
2015-May-02 19:26N 53°23' W 003°00'0 0.0
2015-May-02 18:32N 53°23' W 003°00'0 0.2
2015-May-02 17:28N 53°23' W 002°60'0 0.0
2015-May-02 16:31N 53°23' W 002°60'0 0.0
2015-May-02 15:28N 53°23' W 002°60'0 0.0
2015-May-02 14:31N 53°23' W 002°60'0 0.0
2015-May-02 13:31N 53°23' W 002°60'0 0.0
2015-May-02 12:31N 53°23' W 002°60'0 0.0
2015-May-02 11:31N 53°23' W 002°60'0 0.0
2015-May-02 10:31N 53°23' W 002°60'0 0.0
2015-May-02 09:31N 53°23' W 002°60'0 0.0
2015-May-02 08:31N 53°23' W 002°60'0 0.0
2015-May-02 07:28N 53°23' W 002°60'0 0.0
2015-May-02 06:31N 53°23' W 002°60'0 0.0
2015-May-02 05:31N 53°23' W 002°60'0 0.0
2015-May-02 04:22N 53°23' W 002°60'0 0.0
2015-May-02 03:22N 53°23' W 002°60'0 0.0
2015-May-02 02:31N 53°23' W 002°60'0 0.0
2015-May-02 01:31N 53°23' W 002°60'0 0.0
2015-May-02 00:28N 53°23' W 002°60'0 0.0
2015-May-01 23:31N 53°23' W 002°60'0 0.0
2015-May-01 22:31N 53°23' W 002°60'0 0.0
2015-May-01 21:28N 53°23' W 002°60'0 0.0
2015-May-01 20:28N 53°23' W 002°60'0 0.0
2015-May-01 19:31N 53°23' W 002°60'0 0.0
2015-May-01 18:28N 53°23' W 002°60'0 0.0
2015-May-01 17:28N 53°23' W 002°60'0 0.0
2015-May-01 16:31N 53°23' W 002°60'0 0.0
2015-May-01 15:31N 53°23' W 002°60'0 0.0
2015-May-01 14:31N 53°23' W 002°60'0 0.0
2015-May-01 13:31N 53°23' W 002°60'0 0.0
2015-May-01 12:34N 53°23' W 002°60'0 0.0
2015-May-01 11:25N 53°23' W 002°60'0 0.0
2015-May-01 10:33N 53°23' W 002°60'1 0.8
2015-May-01 09:34N 53°23' W 003°00'9 9.4
2015-May-01 08:34N 53°32' W 003°08'7 7.4
2015-May-01 07:34N 53°32' W 003°20'2 2.4
2015-May-01 06:34N 53°31' W 003°16'8 7.9
2015-May-01 05:33N 53°29' W 003°04'2 2.3
2015-May-01 04:33N 53°27' W 003°01'2 1.7
2015-May-01 03:32N 53°25' W 003°00'0 0.0
2015-May-01 02:32N 53°25' W 003°00'0 0.0
2015-May-01 01:29N 53°25' W 003°00'0 0.0
2015-May-01 00:32N 53°25' W 003°00'0 0.0
2015-Apr-30 23:32N 53°25' W 003°00'0 0.0
2015-Apr-30 22:32N 53°25' W 003°00'0 0.0
2015-Apr-30 21:32N 53°25' W 003°00'0 0.0
2015-Apr-30 20:32N 53°25' W 003°00'0 0.0
2015-Apr-30 19:32N 53°25' W 003°00'0 0.0
2015-Apr-30 18:32N 53°25' W 003°00'0 0.0
2015-Apr-30 17:32N 53°25' W 003°00'0 0.0
2015-Apr-30 16:29N 53°25' W 003°00'0 0.1
2015-Apr-30 15:33N 53°25' W 003°00'0 0.4
2015-Apr-30 14:33N 53°26' W 003°00'0 0.0
2015-Apr-30 13:33N 53°26' W 003°00'0 0.4
2015-Apr-30 12:31N 53°25' W 003°00'0 0.0
2015-Apr-30 11:28N 53°25' W 003°00'0 0.0
2015-Apr-30 10:31N 53°25' W 003°00'0 0.0
2015-Apr-30 09:31N 53°25' W 003°00'0 0.0
2015-Apr-30 08:31N 53°25' W 003°00'0 0.0
2015-Apr-30 07:31N 53°25' W 003°00'0 0.0
2015-Apr-30 06:28N 53°25' W 003°00'0 0.0
2015-Apr-30 05:31N 53°25' W 003°00'0 0.0
2015-Apr-30 04:31N 53°25' W 003°00'0 0.0
2015-Apr-30 03:31N 53°25' W 003°00'0 0.0
2015-Apr-30 02:31N 53°25' W 003°00'0 0.0
2015-Apr-30 01:31N 53°25' W 003°00'0 0.0
2015-Apr-30 00:32N 53°25' W 003°00'2 1.8
2015-Apr-29 23:33N 53°27' W 003°01'0 0.1
2015-Apr-29 22:31N 53°27' W 003°01'2 1.5
2015-Apr-29 21:27N 53°25' W 003°00'0 0.0
2015-Apr-29 20:33N 53°25' W 003°00'0 0.0
2015-Apr-29 19:30N 53°25' W 003°00'0 0.0
2015-Apr-29 18:33N 53°25' W 003°00'0 0.0
2015-Apr-29 17:30N 53°25' W 003°00'0 0.0
2015-Apr-29 16:23N 53°25' W 003°00'0 0.0
2015-Apr-29 15:26N 53°25' W 003°00'0 0.0
2015-Apr-29 14:32N 53°25' W 003°00'0 0.0
2015-Apr-29 13:32N 53°25' W 003°00'0 0.0
2015-Apr-29 12:32N 53°25' W 003°00'0 0.0
2015-Apr-29 11:32N 53°25' W 003°00'1 0.6
2015-Apr-29 10:33N 53°26' W 003°00'2 1.7
2015-Apr-29 09:32N 53°28' W 003°01'0 0.1
2015-Apr-29 08:31N 53°28' W 003°02'1 0.8
2015-Apr-29 07:33N 53°27' W 003°01'2 1.6
2015-Apr-29 06:34N 53°28' W 003°03'5 5.4
2015-Apr-29 05:33N 53°23' W 003°00'0 0.0
2015-Apr-29 04:33N 53°23' W 003°00'0 0.0
2015-Apr-29 03:33N 53°23' W 003°00'0 0.0
2015-Apr-29 02:33N 53°23' W 003°00'0 0.0
2015-Apr-29 01:33N 53°23' W 003°00'0 0.0
2015-Apr-29 00:33N 53°23' W 003°00'0 0.0
2015-Apr-28 23:33N 53°23' W 003°00'0 0.0
2015-Apr-28 22:33N 53°23' W 003°00'0 0.0
2015-Apr-28 21:33N 53°23' W 003°00'0 0.0
2015-Apr-28 20:33N 53°23' W 003°00'1 0.6
2015-Apr-28 19:33N 53°23' W 003°00'4 3.6
2015-Apr-28 18:33N 53°27' W 003°01'1 0.6
2015-Apr-28 17:29N 53°28' W 003°01'2 2.3
2015-Apr-28 16:31N 53°25' W 003°00'0 0.0
2015-Apr-28 12:30N 53°25' W 003°00'0 0.0
2015-Apr-28 11:33N 53°25' W 003°00'0 0.0
2015-Apr-28 10:25N 53°25' W 003°00'2 1.8
2015-Apr-28 09:31N 53°27' W 003°01'0 0.2
2015-Apr-28 08:32N 53°27' W 003°01'0 0.0
2015-Apr-28 07:32N 53°27' W 003°01'0 0.4
2015-Apr-28 06:32N 53°28' W 003°01'0 0.1
2015-Apr-28 05:32N 53°28' W 003°02'1 0.9
2015-Apr-28 04:33N 53°27' W 003°01'1 1.4
2015-Apr-28 03:33N 53°25' W 003°01'3 2.5
2015-Apr-28 02:29N 53°23' W 002°60'0 0.1
2015-Apr-28 01:32N 53°23' W 002°60'0 0.0
2015-Apr-28 00:32N 53°23' W 002°60'0 0.0
2015-Apr-27 23:32N 53°23' W 002°60'0 0.0
2015-Apr-27 22:32N 53°23' W 002°60'0 0.0
2015-Apr-27 21:31N 53°23' W 002°60'0 0.0
2015-Apr-27 20:28N 53°23' W 002°60'0 0.0
2015-Apr-27 19:31N 53°23' W 002°60'0 0.0
2015-Apr-27 18:31N 53°23' W 002°60'4 4.2
2015-Apr-27 17:30N 53°27' W 003°01'1 0.5
2015-Apr-27 16:32N 53°27' W 003°02'4 3.6
2015-Apr-27 15:26N 53°23' W 002°60'0 0.0
2015-Apr-27 14:32N 53°23' W 002°60'0 0.0
2015-Apr-27 13:32N 53°23' W 002°60'0 0.0
2015-Apr-27 12:32N 53°23' W 002°60'0 0.0
2015-Apr-27 11:32N 53°23' W 002°60'0 0.0
2015-Apr-27 10:29N 53°23' W 002°60'0 0.0
2015-Apr-27 09:32N 53°23' W 002°60'0 0.0
2015-Apr-27 08:32N 53°23' W 002°60'0 0.0
2015-Apr-27 07:29N 53°23' W 002°60'0 0.0
2015-Apr-27 06:26N 53°23' W 002°60'0 0.0
2015-Apr-27 05:32N 53°23' W 002°60'0 0.0
2015-Apr-27 04:32N 53°23' W 002°60'0 0.0
2015-Apr-27 03:32N 53°23' W 002°60'0 0.0
2015-Apr-27 02:32N 53°23' W 002°60'0 0.0
2015-Apr-27 01:32N 53°23' W 002°60'0 0.0
2015-Apr-27 00:29N 53°23' W 002°60'0 0.0
2015-Apr-26 23:32N 53°23' W 002°60'0 0.0
2015-Apr-26 22:32N 53°23' W 002°60'0 0.0
2015-Apr-26 21:32N 53°23' W 002°60'0 0.0
2015-Apr-26 20:32N 53°23' W 002°60'0 0.0
2015-Apr-26 19:32N 53°23' W 002°60'0 0.0
2015-Apr-26 18:32N 53°23' W 002°60'0 0.3
2015-Apr-26 17:32N 53°23' W 003°00'4 4.2
2015-Apr-26 16:33N 53°27' W 003°02'8 8.1
2015-Apr-26 15:33N 53°31' W 003°13'0 0.4
2015-Apr-26 14:33N 53°31' W 003°12'7 7.1
2015-Apr-26 13:33N 53°27' W 003°02'5 0.6
2015-Apr-26 05:31N 53°23' W 002°60'0 0.0
2015-Apr-26 04:31N 53°23' W 002°60'0 0.0
2015-Apr-26 03:31N 53°23' W 002°60'0 0.0
2015-Apr-26 02:25N 53°23' W 002°60'0 0.0
2015-Apr-26 01:31N 53°23' W 002°60'0 0.0
2015-Apr-26 00:31N 53°23' W 002°60'0 0.0
2015-Apr-25 23:31N 53°23' W 002°60'0 0.0
2015-Apr-25 22:31N 53°23' W 002°60'0 0.0
2015-Apr-25 21:31N 53°23' W 002°60'0 0.0
2015-Apr-25 20:31N 53°23' W 002°60'0 0.0
2015-Apr-25 19:28N 53°23' W 002°60'0 0.0
2015-Apr-25 18:31N 53°23' W 002°60'0 0.0
2015-Apr-25 17:31N 53°23' W 002°60'0 0.0
2015-Apr-25 16:28N 53°23' W 002°60'0 0.0
2015-Apr-25 15:31N 53°23' W 002°60'0 0.0
2015-Apr-25 14:31N 53°23' W 002°60'0 0.0
2015-Apr-25 13:25N 53°23' W 002°60'0 0.0
2015-Apr-25 12:31N 53°23' W 002°60'0 0.0
2015-Apr-25 11:28N 53°23' W 002°60'0 0.0
2015-Apr-25 10:28N 53°23' W 002°60'0 0.0
2015-Apr-25 09:31N 53°23' W 002°60'0 0.0
2015-Apr-25 08:31N 53°23' W 002°60'0 0.0
2015-Apr-25 07:28N 53°23' W 002°60'0 0.0
2015-Apr-25 06:25N 53°23' W 002°60'0 0.0
2015-Apr-25 05:31N 53°23' W 002°60'0 0.0
2015-Apr-25 04:31N 53°23' W 002°60'0 0.0
2015-Apr-25 03:34N 53°23' W 002°60'0 0.0
2015-Apr-25 02:33N 53°23' W 002°60'0 0.0
2015-Apr-25 01:33N 53°23' W 002°60'0 0.0
2015-Apr-25 00:33N 53°23' W 002°60'0 0.0
2015-Apr-24 23:30N 53°23' W 002°60'0 0.0
2015-Apr-24 22:33N 53°23' W 002°60'0 0.0
2015-Apr-24 21:33N 53°23' W 002°60'0 0.0
2015-Apr-24 20:30N 53°23' W 002°60'0 0.0
2015-Apr-24 19:33N 53°23' W 002°60'0 0.0
2015-Apr-24 18:27N 53°23' W 002°60'0 0.0
2015-Apr-24 17:33N 53°23' W 002°60'0 0.0
2015-Apr-24 16:18N 53°23' W 002°60'0 0.3
2015-Apr-24 15:22N 53°23' W 003°00'3 3.7
2015-Apr-24 14:33N 53°26' W 003°01'8 7.5
2015-Apr-24 13:33N 53°32' W 003°09'0 0.1
2015-Apr-24 12:33N 53°32' W 003°09'9 9.1
2015-Apr-24 11:33N 53°24' W 003°00'1 1.5
2015-Apr-24 10:33N 53°23' W 002°60'0 0.1
2015-Apr-24 09:30N 53°23' W 002°60'0 0.0
2015-Apr-24 08:33N 53°23' W 002°60'0 0.0
2015-Apr-24 07:30N 53°23' W 002°60'0 0.0
2015-Apr-24 06:30N 53°23' W 002°60'0 0.0
2015-Apr-24 05:30N 53°23' W 002°60'0 0.0
2015-Apr-24 04:33N 53°23' W 002°60'0 0.0
2015-Apr-24 03:33N 53°23' W 002°60'0 0.0
2015-Apr-24 02:27N 53°23' W 002°60'0 0.0
2015-Apr-24 01:32N 53°23' W 002°60'0 0.0
2015-Apr-24 00:32N 53°23' W 002°60'0 0.0
2015-Apr-23 23:32N 53°23' W 002°60'0 0.0
2015-Apr-23 22:29N 53°23' W 002°60'0 0.0
2015-Apr-23 21:32N 53°23' W 002°60'0 0.0
2015-Apr-23 20:32N 53°23' W 002°60'0 0.0
2015-Apr-23 19:32N 53°23' W 002°60'0 0.0
2015-Apr-23 18:32N 53°23' W 002°60'0 0.0
2015-Apr-23 17:29N 53°23' W 002°60'0 0.0
2015-Apr-23 16:32N 53°23' W 002°60'0 0.0
2015-Apr-23 15:29N 53°23' W 002°60'0 0.0
2015-Apr-23 14:29N 53°23' W 002°60'0 0.0
2015-Apr-23 13:32N 53°23' W 002°60'0 0.0
2015-Apr-23 12:32N 53°23' W 002°60'0 0.0
2015-Apr-23 11:32N 53°23' W 002°60'0 0.0
2015-Apr-23 10:29N 53°23' W 002°60'0 0.0
2015-Apr-23 09:32N 53°23' W 002°60'  
Track history (hours):
 
Tides and Currents Weather Stations Pressure Air Temp Water Temp Dewpoint Dewpoint Depression Visibility Wind Speed Wind Dir Waves Ship Positions

Svitzer Stanlow

Last reported at 2015-May-03 08:33 UTC. Time now 2015-May-03 08:48 UTC.
Position N 53°31' W 003°18'.

Length 39 m.

Type: Tug. MMSI: 235010620.

Date/timePositionNaut miles runAvg speedWind from/ knotsBaromVisibWave heightAir tempDewpointWater temp
2015-May-03 08:33N 53°31' W 003°18'7 7.5
2015-May-03 07:33N 53°30' W 003°06'8 7.2
2015-May-03 06:29N 53°23' W 003°00'0 0.0
2015-May-03 05:32N 53°23' W 003°00'0 0.0
2015-May-03 04:29N 53°23' W 003°00'0 0.0
2015-May-03 03:32N 53°23' W 003°00'0 0.0
2015-May-03 02:32N 53°23' W 003°00'0 0.0
2015-May-03 01:32N 53°23' W 003°00'0 0.0
2015-May-03 00:32N 53°23' W 003°00'0 0.0
2015-May-02 23:32N 53°23' W 003°00'0 0.0
2015-May-02 22:32N 53°23' W 003°00'0 0.0
2015-May-02 21:32N 53°23' W 003°00'0 0.0
2015-May-02 20:32N 53°23' W 003°00'0 0.0
2015-May-02 19:26N 53°23' W 003°00'0 0.0
2015-May-02 18:32N 53°23' W 003°00'0 0.2
2015-May-02 17:28N 53°23' W 002°60'0 0.0
2015-May-02 16:31N 53°23' W 002°60'0 0.0
2015-May-02 15:28N 53°23' W 002°60'0 0.0
2015-May-02 14:31N 53°23' W 002°60'0 0.0
2015-May-02 13:31N 53°23' W 002°60'0 0.0
2015-May-02 12:31N 53°23' W 002°60'0 0.0
2015-May-02 11:31N 53°23' W 002°60'0 0.0
2015-May-02 10:31N 53°23' W 002°60'0 0.0
2015-May-02 09:31N 53°23' W 002°60'0 0.0
2015-May-02 08:31N 53°23' W 002°60'0 0.0
2015-May-02 07:28N 53°23' W 002°60'0 0.0
2015-May-02 06:31N 53°23' W 002°60'0 0.0
2015-May-02 05:31N 53°23' W 002°60'0 0.0
2015-May-02 04:22N 53°23' W 002°60'0 0.0
2015-May-02 03:22N 53°23' W 002°60'0 0.0
2015-May-02 02:31N 53°23' W 002°60'0 0.0
2015-May-02 01:31N 53°23' W 002°60'0 0.0
2015-May-02 00:28N 53°23' W 002°60'0 0.0
2015-May-01 23:31N 53°23' W 002°60'0 0.0
2015-May-01 22:31N 53°23' W 002°60'0 0.0
2015-May-01 21:28N 53°23' W 002°60'0 0.0
2015-May-01 20:28N 53°23' W 002°60'0 0.0
2015-May-01 19:31N 53°23' W 002°60'0 0.0
2015-May-01 18:28N 53°23' W 002°60'0 0.0
2015-May-01 17:28N 53°23' W 002°60'0 0.0
2015-May-01 16:31N 53°23' W 002°60'0 0.0
2015-May-01 15:31N 53°23' W 002°60'0 0.0
2015-May-01 14:31N 53°23' W 002°60'0 0.0
2015-May-01 13:31N 53°23' W 002°60'0 0.0
2015-May-01 12:34N 53°23' W 002°60'0 0.0
2015-May-01 11:25N 53°23' W 002°60'0 0.0
2015-May-01 10:33N 53°23' W 002°60'1 0.8
2015-May-01 09:34N 53°23' W 003°00'9 9.4
2015-May-01 08:34N 53°32' W 003°08'7 7.4
2015-May-01 07:34N 53°32' W 003°20'2 2.4
2015-May-01 06:34N 53°31' W 003°16'8 7.9
2015-May-01 05:33N 53°29' W 003°04'2 2.3
2015-May-01 04:33N 53°27' W 003°01'2 1.7
2015-May-01 03:32N 53°25' W 003°00'0 0.0
2015-May-01 02:32N 53°25' W 003°00'0 0.0
2015-May-01 01:29N 53°25' W 003°00'0 0.0
2015-May-01 00:32N 53°25' W 003°00'0 0.0
2015-Apr-30 23:32N 53°25' W 003°00'0 0.0
2015-Apr-30 22:32N 53°25' W 003°00'0 0.0
2015-Apr-30 21:32N 53°25' W 003°00'0 0.0
2015-Apr-30 20:32N 53°25' W 003°00'0 0.0
2015-Apr-30 19:32N 53°25' W 003°00'0 0.0
2015-Apr-30 18:32N 53°25' W 003°00'0 0.0
2015-Apr-30 17:32N 53°25' W 003°00'0 0.0
2015-Apr-30 16:29N 53°25' W 003°00'0 0.1
2015-Apr-30 15:33N 53°25' W 003°00'0 0.4
2015-Apr-30 14:33N 53°26' W 003°00'0 0.0
2015-Apr-30 13:33N 53°26' W 003°00'0 0.4
2015-Apr-30 12:31N 53°25' W 003°00'0 0.0
2015-Apr-30 11:28N 53°25' W 003°00'0 0.0
2015-Apr-30 10:31N 53°25' W 003°00'0 0.0
2015-Apr-30 09:31N 53°25' W 003°00'0 0.0
2015-Apr-30 08:31N 53°25' W 003°00'0 0.0
2015-Apr-30 07:31N 53°25' W 003°00'0 0.0
2015-Apr-30 06:28N 53°25' W 003°00'0 0.0
2015-Apr-30 05:31N 53°25' W 003°00'0 0.0
2015-Apr-30 04:31N 53°25' W 003°00'0 0.0
2015-Apr-30 03:31N 53°25' W 003°00'0 0.0
2015-Apr-30 02:31N 53°25' W 003°00'0 0.0
2015-Apr-30 01:31N 53°25' W 003°00'0 0.0
2015-Apr-30 00:32N 53°25' W 003°00'2 1.8
2015-Apr-29 23:33N 53°27' W 003°01'0 0.1
2015-Apr-29 22:31N 53°27' W 003°01'2 1.5
2015-Apr-29 21:27N 53°25' W 003°00'0 0.0
2015-Apr-29 20:33N 53°25' W 003°00'0 0.0
2015-Apr-29 19:30N 53°25' W 003°00'0 0.0
2015-Apr-29 18:33N 53°25' W 003°00'0 0.0
2015-Apr-29 17:30N 53°25' W 003°00'0 0.0
2015-Apr-29 16:23N 53°25' W 003°00'0 0.0
2015-Apr-29 15:26N 53°25' W 003°00'0 0.0
2015-Apr-29 14:32N 53°25' W 003°00'0 0.0
2015-Apr-29 13:32N 53°25' W 003°00'0 0.0
2015-Apr-29 12:32N 53°25' W 003°00'0 0.0
2015-Apr-29 11:32N 53°25' W 003°00'1 0.6
2015-Apr-29 10:33N 53°26' W 003°00'2 1.7
2015-Apr-29 09:32N 53°28' W 003°01'0 0.1
2015-Apr-29 08:31N 53°28' W 003°02'1 0.8
2015-Apr-29 07:33N 53°27' W 003°01'2 1.6
2015-Apr-29 06:34N 53°28' W 003°03'5 5.4
2015-Apr-29 05:33N 53°23' W 003°00'0 0.0
2015-Apr-29 04:33N 53°23' W 003°00'0 0.0
2015-Apr-29 03:33N 53°23' W 003°00'0 0.0
2015-Apr-29 02:33N 53°23' W 003°00'0 0.0
2015-Apr-29 01:33N 53°23' W 003°00'0 0.0
2015-Apr-29 00:33N 53°23' W 003°00'0 0.0
2015-Apr-28 23:33N 53°23' W 003°00'0 0.0
2015-Apr-28 22:33N 53°23' W 003°00'0 0.0
2015-Apr-28 21:33N 53°23' W 003°00'0 0.0
2015-Apr-28 20:33N 53°23' W 003°00'1 0.6
2015-Apr-28 19:33N 53°23' W 003°00'4 3.6
2015-Apr-28 18:33N 53°27' W 003°01'1 0.6
2015-Apr-28 17:29N 53°28' W 003°01'2 2.3
2015-Apr-28 16:31N 53°25' W 003°00'0 0.0
2015-Apr-28 12:30N 53°25' W 003°00'0 0.0
2015-Apr-28 11:33N 53°25' W 003°00'0 0.0
2015-Apr-28 10:25N 53°25' W 003°00'2 1.8
2015-Apr-28 09:31N 53°27' W 003°01'0 0.2
2015-Apr-28 08:32N 53°27' W 003°01'0 0.0
2015-Apr-28 07:32N 53°27' W 003°01'0 0.4
2015-Apr-28 06:32N 53°28' W 003°01'0 0.1
2015-Apr-28 05:32N 53°28' W 003°02'1 0.9
2015-Apr-28 04:33N 53°27' W 003°01'1 1.4
2015-Apr-28 03:33N 53°25' W 003°01'3 2.5
2015-Apr-28 02:29N 53°23' W 002°60'0 0.1
2015-Apr-28 01:32N 53°23' W 002°60'0 0.0
2015-Apr-28 00:32N 53°23' W 002°60'0 0.0
2015-Apr-27 23:32N 53°23' W 002°60'0 0.0
2015-Apr-27 22:32N 53°23' W 002°60'0 0.0
2015-Apr-27 21:31N 53°23' W 002°60'0 0.0
2015-Apr-27 20:28N 53°23' W 002°60'0 0.0
2015-Apr-27 19:31N 53°23' W 002°60'0 0.0
2015-Apr-27 18:31N 53°23' W 002°60'4 4.2
2015-Apr-27 17:30N 53°27' W 003°01'1 0.5
2015-Apr-27 16:32N 53°27' W 003°02'4 3.6
2015-Apr-27 15:26N 53°23' W 002°60'0 0.0
2015-Apr-27 14:32N 53°23' W 002°60'0 0.0
2015-Apr-27 13:32N 53°23' W 002°60'0 0.0
2015-Apr-27 12:32N 53°23' W 002°60'0 0.0
2015-Apr-27 11:32N 53°23' W 002°60'0 0.0
2015-Apr-27 10:29N 53°23' W 002°60'0 0.0
2015-Apr-27 09:32N 53°23' W 002°60'0 0.0
2015-Apr-27 08:32N 53°23' W 002°60'0 0.0
2015-Apr-27 07:29N 53°23' W 002°60'0 0.0
2015-Apr-27 06:26N 53°23' W 002°60'0 0.0
2015-Apr-27 05:32N 53°23' W 002°60'0 0.0
2015-Apr-27 04:32N 53°23' W 002°60'0 0.0
2015-Apr-27 03:32N 53°23' W 002°60'0 0.0
2015-Apr-27 02:32N 53°23' W 002°60'0 0.0
2015-Apr-27 01:32N 53°23' W 002°60'0 0.0
2015-Apr-27 00:29N 53°23' W 002°60'0 0.0
2015-Apr-26 23:32N 53°23' W 002°60'0 0.0
2015-Apr-26 22:32N 53°23' W 002°60'0 0.0
2015-Apr-26 21:32N 53°23' W 002°60'0 0.0
2015-Apr-26 20:32N 53°23' W 002°60'0 0.0
2015-Apr-26 19:32N 53°23' W 002°60'0 0.0
2015-Apr-26 18:32N 53°23' W 002°60'0 0.3
2015-Apr-26 17:32N 53°23' W 003°00'4 4.2
2015-Apr-26 16:33N 53°27' W 003°02'8 8.1
2015-Apr-26 15:33N 53°31' W 003°13'0 0.4
2015-Apr-26 14:33N 53°31' W 003°12'7 7.1
2015-Apr-26 13:33N 53°27' W 003°02'5 0.6
2015-Apr-26 05:31N 53°23' W 002°60'0 0.0
2015-Apr-26 04:31N 53°23' W 002°60'0 0.0
2015-Apr-26 03:31N 53°23' W 002°60'0 0.0
2015-Apr-26 02:25N 53°23' W 002°60'0 0.0
2015-Apr-26 01:31N 53°23' W 002°60'0 0.0
2015-Apr-26 00:31N 53°23' W 002°60'0 0.0
2015-Apr-25 23:31N 53°23' W 002°60'0 0.0
2015-Apr-25 22:31N 53°23' W 002°60'0 0.0
2015-Apr-25 21:31N 53°23' W 002°60'0 0.0
2015-Apr-25 20:31N 53°23' W 002°60'0 0.0
2015-Apr-25 19:28N 53°23' W 002°60'0 0.0
2015-Apr-25 18:31N 53°23' W 002°60'0 0.0
2015-Apr-25 17:31N 53°23' W 002°60'0 0.0
2015-Apr-25 16:28N 53°23' W 002°60'0 0.0
2015-Apr-25 15:31N 53°23' W 002°60'0 0.0
2015-Apr-25 14:31N 53°23' W 002°60'0 0.0
2015-Apr-25 13:25N 53°23' W 002°60'0 0.0
2015-Apr-25 12:31N 53°23' W 002°60'0 0.0
2015-Apr-25 11:28N 53°23' W 002°60'0 0.0
2015-Apr-25 10:28N 53°23' W 002°60'0 0.0
2015-Apr-25 09:31N 53°23' W 002°60'0 0.0
2015-Apr-25 08:31N 53°23' W 002°60'0 0.0
2015-Apr-25 07:28N 53°23' W 002°60'0 0.0
2015-Apr-25 06:25N 53°23' W 002°60'0 0.0
2015-Apr-25 05:31N 53°23' W 002°60'0 0.0
2015-Apr-25 04:31N 53°23' W 002°60'0 0.0
2015-Apr-25 03:34N 53°23' W 002°60'0 0.0
2015-Apr-25 02:33N 53°23' W 002°60'0 0.0
2015-Apr-25 01:33N 53°23' W 002°60'0 0.0
2015-Apr-25 00:33N 53°23' W 002°60'0 0.0
2015-Apr-24 23:30N 53°23' W 002°60'0 0.0
2015-Apr-24 22:33N 53°23' W 002°60'0 0.0
2015-Apr-24 21:33N 53°23' W 002°60'0 0.0
2015-Apr-24 20:30N 53°23' W 002°60'0 0.0
2015-Apr-24 19:33N 53°23' W 002°60'0 0.0
2015-Apr-24 18:27N 53°23' W 002°60'0 0.0
2015-Apr-24 17:33N 53°23' W 002°60'0 0.0
2015-Apr-24 16:18N 53°23' W 002°60'0 0.3
2015-Apr-24 15:22N 53°23' W 003°00'3 3.7
2015-Apr-24 14:33N 53°26' W 003°01'8 7.5
2015-Apr-24 13:33N 53°32' W 003°09'0 0.1
2015-Apr-24 12:33N 53°32' W 003°09'9 9.1
2015-Apr-24 11:33N 53°24' W 003°00'1 1.5
2015-Apr-24 10:33N 53°23' W 002°60'0 0.1
2015-Apr-24 09:30N 53°23' W 002°60'0 0.0
2015-Apr-24 08:33N 53°23' W 002°60'0 0.0
2015-Apr-24 07:30N 53°23' W 002°60'0 0.0
2015-Apr-24 06:30N 53°23' W 002°60'0 0.0
2015-Apr-24 05:30N 53°23' W 002°60'0 0.0
2015-Apr-24 04:33N 53°23' W 002°60'0 0.0
2015-Apr-24 03:33N 53°23' W 002°60'0 0.0
2015-Apr-24 02:27N 53°23' W 002°60'0 0.0
2015-Apr-24 01:32N 53°23' W 002°60'0 0.0
2015-Apr-24 00:32N 53°23' W 002°60'0 0.0
2015-Apr-23 23:32N 53°23' W 002°60'0 0.0
2015-Apr-23 22:29N 53°23' W 002°60'0 0.0
2015-Apr-23 21:32N 53°23' W 002°60'0 0.0
2015-Apr-23 20:32N 53°23' W 002°60'0 0.0
2015-Apr-23 19:32N 53°23' W 002°60'0 0.0
2015-Apr-23 18:32N 53°23' W 002°60'0 0.0
2015-Apr-23 17:29N 53°23' W 002°60'0 0.0
2015-Apr-23 16:32N 53°23' W 002°60'0 0.0
2015-Apr-23 15:29N 53°23' W 002°60'0 0.0
2015-Apr-23 14:29N 53°23' W 002°60'0 0.0
2015-Apr-23 13:32N 53°23' W 002°60'0 0.0
2015-Apr-23 12:32N 53°23' W 002°60'0 0.0
2015-Apr-23 11:32N 53°23' W 002°60'0 0.0
2015-Apr-23 10:29N 53°23' W 002°60'0 0.0
2015-Apr-23 09:32N 53°23' W 002°60'  

Dump ship's entire track history